createdAt,value
2023-02-16T00:01:34.745Z,8.80
2023-02-16T00:04:01.873Z,8.80
2023-02-16T00:06:29.292Z,8.80
2023-02-16T00:08:56.674Z,8.80
2023-02-16T00:11:41.885Z,8.80
2023-02-16T00:14:09.763Z,8.80
2023-02-16T00:16:36.787Z,8.80
2023-02-16T00:19:22.314Z,8.80
2023-02-16T00:21:49.946Z,8.80
2023-02-16T00:24:16.886Z,8.90
2023-02-16T00:26:44.253Z,8.80
2023-02-16T00:29:14.091Z,8.90
2023-02-16T00:31:40.895Z,8.90
2023-02-16T00:34:16.923Z,8.80
2023-02-16T00:36:43.616Z,8.80
2023-02-16T00:39:10.312Z,8.80
2023-02-16T00:41:52.454Z,8.80
2023-02-16T00:44:19.152Z,8.80
2023-02-16T00:46:46.365Z,8.80
2023-02-16T00:49:17.226Z,8.80
2023-02-16T00:51:44.124Z,8.80
2023-02-16T00:54:10.885Z,8.90
2023-02-16T00:56:38.058Z,8.90
2023-02-16T00:59:06.178Z,8.80
2023-02-16T01:01:34.480Z,8.80
2023-02-16T01:04:02.243Z,8.90
2023-02-16T01:06:47.592Z,8.80
2023-02-16T01:09:34.173Z,8.90
2023-02-16T01:12:01.567Z,8.90
2023-02-16T01:14:29.654Z,8.90
2023-02-16T01:16:56.380Z,8.90
2023-02-16T01:19:23.077Z,8.90
2023-02-16T01:21:49.762Z,8.90
2023-02-16T01:24:16.546Z,8.90
2023-02-16T01:26:46.540Z,8.90
2023-02-16T01:29:15.588Z,8.90
2023-02-16T01:31:42.960Z,8.90
2023-02-16T01:34:09.769Z,8.80
2023-02-16T01:36:38.155Z,8.90
2023-02-16T01:39:05.211Z,8.90
2023-02-16T01:41:31.883Z,8.80
2023-02-16T01:44:02.492Z,8.80
2023-02-16T01:46:48.087Z,8.90
2023-02-16T01:49:15.383Z,8.90
2023-02-16T01:51:50.913Z,8.90
2023-02-16T01:54:36.318Z,8.90
2023-02-16T01:57:09.099Z,8.90
2023-02-16T01:59:42.253Z,8.80
2023-02-16T02:02:15.276Z,8.90
2023-02-16T02:05:29.928Z,8.90
2023-02-16T02:07:59.542Z,8.90
2023-02-16T02:10:26.187Z,8.90
2023-02-16T02:12:55.448Z,8.90
2023-02-16T02:18:08.824Z,8.80
2023-02-16T02:20:54.298Z,8.90
2023-02-16T02:23:33.743Z,8.90
2023-02-16T02:26:12.717Z,8.90
2023-02-16T02:28:42.435Z,8.80
2023-02-16T02:31:32.536Z,8.80
2023-02-16T02:34:28.669Z,8.80
2023-02-16T02:37:05.473Z,8.90
2023-02-16T02:39:41.665Z,8.80
2023-02-16T02:42:14.589Z,8.80
2023-02-16T02:44:49.288Z,8.80
2023-02-16T02:47:16.209Z,8.80
2023-02-16T02:49:52.615Z,8.90
2023-02-16T02:52:19.919Z,8.90
2023-02-16T02:55:05.152Z,8.80
2023-02-16T02:58:00.245Z,8.80
2023-02-16T03:00:43.715Z,8.80
2023-02-16T03:03:54.404Z,8.80
2023-02-16T03:06:26.634Z,8.80
2023-02-16T03:08:55.448Z,8.80
2023-02-16T03:11:41.809Z,8.80
2023-02-16T03:14:24.240Z,8.80
2023-02-16T03:17:14.536Z,8.80
2023-02-16T03:20:01.546Z,8.80
2023-02-16T03:22:47.557Z,8.80
2023-02-16T03:25:33.197Z,8.80
2023-02-16T03:28:21.502Z,8.80
2023-02-16T03:30:51.076Z,8.90
2023-02-16T03:33:17.963Z,8.80
2023-02-16T03:35:45.446Z,8.80
2023-02-16T03:38:12.839Z,8.80
2023-02-16T03:40:41.038Z,8.80
2023-02-16T03:43:08.629Z,8.90
2023-02-16T03:45:37.425Z,8.90
2023-02-16T03:48:04.793Z,8.90
2023-02-16T03:50:31.557Z,8.80
2023-02-16T03:53:07.653Z,8.80
2023-02-16T03:55:42.008Z,8.80
2023-02-16T03:58:09.701Z,8.80
2023-02-16T04:00:36.917Z,8.80
2023-02-16T04:03:04.434Z,8.80
2023-02-16T04:05:31.773Z,8.80
2023-02-16T04:07:58.608Z,8.80
2023-02-16T04:10:25.516Z,8.80
2023-02-16T04:12:52.402Z,8.80
2023-02-16T04:15:21.068Z,8.70
2023-02-16T04:17:54.583Z,8.70
2023-02-16T04:20:23.616Z,8.70
2023-02-16T04:22:50.428Z,8.80
2023-02-16T04:25:18.643Z,8.70
2023-02-16T04:27:45.704Z,8.70
2023-02-16T04:30:13.601Z,8.70
2023-02-16T04:32:40.600Z,8.70
2023-02-16T04:35:07.856Z,8.70
2023-02-16T04:37:34.928Z,8.70
2023-02-16T04:40:01.833Z,8.70
2023-02-16T04:42:28.792Z,8.70
2023-02-16T04:44:55.549Z,8.80
2023-02-16T04:47:25.796Z,8.80
2023-02-16T04:49:53.105Z,8.80
2023-02-16T04:52:20.176Z,8.80
2023-02-16T04:54:47.077Z,8.80
2023-02-16T04:57:14.082Z,8.80
2023-02-16T04:59:40.858Z,8.70
2023-02-16T05:02:07.596Z,8.80
2023-02-16T05:04:34.923Z,8.80
2023-02-16T05:07:01.955Z,8.80
2023-02-16T05:09:28.808Z,8.80
2023-02-16T05:12:14.182Z,8.80
2023-02-16T05:14:45.057Z,8.80
2023-02-16T05:17:14.390Z,8.70
2023-02-16T05:19:42.527Z,8.70
2023-02-16T05:22:09.817Z,8.70
2023-02-16T05:24:37.220Z,8.70
2023-02-16T05:27:05.362Z,8.70
2023-02-16T05:29:32.255Z,8.70
2023-02-16T05:32:00.562Z,8.70
2023-02-16T05:34:28.228Z,8.70
2023-02-16T05:36:55.325Z,8.70
2023-02-16T05:39:22.206Z,8.70
2023-02-16T05:41:49.874Z,8.70
2023-02-16T05:44:16.993Z,8.70
2023-02-16T05:46:54.992Z,8.70
2023-02-16T05:49:21.892Z,8.70
2023-02-16T05:51:48.674Z,8.70
2023-02-16T05:54:18.572Z,8.70
2023-02-16T05:56:49.467Z,8.70
2023-02-16T05:59:16.819Z,8.60
2023-02-16T06:01:44.125Z,8.70
2023-02-16T06:04:11.951Z,8.70
2023-02-16T06:06:38.978Z,8.70
2023-02-16T06:09:06.575Z,8.70
2023-02-16T06:11:36.278Z,8.70
2023-02-16T06:14:13.396Z,8.70
2023-02-16T06:16:41.628Z,8.70
2023-02-16T06:19:08.850Z,8.70
2023-02-16T06:21:35.760Z,8.60
2023-02-16T06:24:02.778Z,8.60
2023-02-16T06:26:29.532Z,8.60
2023-02-16T06:28:56.521Z,8.60
2023-02-16T06:31:24.617Z,8.60
2023-02-16T06:33:51.747Z,8.60
2023-02-16T06:36:18.625Z,8.60
2023-02-16T06:38:45.682Z,8.70
2023-02-16T06:41:12.562Z,8.70
2023-02-16T06:43:39.527Z,8.70
2023-02-16T06:46:06.318Z,8.70
2023-02-16T06:48:33.145Z,8.70
2023-02-16T06:50:59.990Z,8.70
2023-02-16T06:53:26.775Z,8.70
2023-02-16T06:55:53.565Z,8.70
2023-02-16T06:58:20.428Z,8.70
2023-02-16T07:00:47.453Z,8.70
2023-02-16T07:03:14.335Z,8.70
2023-02-16T07:05:41.256Z,8.70
2023-02-16T07:08:08.429Z,8.70
2023-02-16T07:10:48.912Z,8.70
2023-02-16T07:13:16.221Z,8.70
2023-02-16T07:15:43.057Z,8.80
2023-02-16T07:18:09.850Z,8.80
2023-02-16T07:20:37.193Z,8.80
2023-02-16T07:23:04.266Z,8.80
2023-02-16T07:25:31.089Z,8.80
2023-02-16T07:27:58.058Z,8.80
2023-02-16T07:30:25.532Z,8.80
2023-02-16T07:32:52.337Z,8.70
2023-02-16T07:35:19.268Z,8.80
2023-02-16T07:37:46.108Z,8.70
2023-02-16T07:40:13.479Z,8.70
2023-02-16T07:42:40.394Z,8.70
2023-02-16T07:45:07.380Z,8.70
2023-02-16T07:47:34.151Z,8.70
2023-02-16T07:50:01.177Z,8.70
2023-02-16T07:52:31.300Z,8.70
2023-02-16T07:55:01.894Z,8.70
2023-02-16T07:57:29.239Z,8.70
2023-02-16T07:59:56.632Z,8.70
2023-02-16T08:02:23.887Z,8.70
2023-02-16T08:04:54.191Z,8.70
2023-02-16T08:07:21.547Z,8.70
2023-02-16T08:09:48.515Z,8.80
2023-02-16T08:12:16.523Z,8.80
2023-02-16T08:14:43.724Z,8.80
2023-02-16T08:17:10.972Z,8.80
2023-02-16T08:19:37.741Z,8.80
2023-02-16T08:22:05.009Z,8.80
2023-02-16T08:24:34.077Z,8.80
2023-02-16T08:27:02.339Z,8.80
2023-02-16T08:29:29.300Z,8.80
2023-02-16T08:31:57.057Z,8.90
2023-02-16T08:34:24.270Z,8.90
2023-02-16T08:36:56.493Z,9.00
2023-02-16T08:39:24.731Z,9.00
2023-02-16T08:41:52.212Z,9.30
2023-02-16T08:44:19.765Z,9.60
2023-02-16T08:46:47.752Z,10.10
2023-02-16T08:49:15.673Z,10.60
2023-02-16T08:51:44.317Z,11.10
2023-02-16T08:54:14.592Z,11.60
2023-02-16T08:56:45.846Z,12.10
2023-02-16T08:59:13.120Z,12.40
2023-02-16T09:01:40.558Z,12.60
2023-02-16T09:04:07.489Z,12.90
2023-02-16T09:06:37.171Z,13.20
2023-02-16T09:09:05.255Z,13.30
2023-02-16T09:11:32.255Z,13.60
2023-02-16T09:13:59.406Z,13.90
2023-02-16T09:16:29.149Z,14.10
2023-02-16T09:18:57.381Z,14.30
2023-02-16T09:21:25.641Z,14.40
2023-02-16T09:23:55.986Z,14.50
2023-02-16T09:26:23.904Z,14.50
2023-02-16T09:28:51.193Z,14.70
2023-02-16T09:31:25.819Z,14.80
2023-02-16T09:33:57.250Z,14.90
2023-02-16T09:36:24.054Z,14.90
2023-02-16T09:38:51.529Z,14.90
2023-02-16T09:41:38.573Z,14.90
2023-02-16T09:44:24.109Z,15.00
2023-02-16T09:46:50.923Z,15.20
2023-02-16T09:49:25.092Z,15.30
2023-02-16T09:52:04.780Z,15.30
2023-02-16T09:54:31.492Z,15.40
2023-02-16T09:57:01.748Z,15.50
2023-02-16T09:59:34.340Z,15.60
2023-02-16T10:02:10.222Z,15.70
2023-02-16T10:04:46.076Z,15.80
2023-02-16T10:07:15.733Z,15.90
2023-02-16T10:09:45.179Z,16.00
2023-02-16T10:12:13.936Z,16.00
2023-02-16T10:14:43.376Z,16.10
2023-02-16T10:17:15.898Z,16.20
2023-02-16T10:19:45.854Z,16.20
2023-02-16T10:22:17.366Z,16.20
2023-02-16T10:24:49.905Z,16.30
2023-02-16T10:27:16.931Z,16.30
2023-02-16T10:29:43.724Z,16.40
2023-02-16T10:32:16.695Z,16.40
2023-02-16T10:34:49.507Z,16.50
2023-02-16T10:37:25.199Z,16.50
2023-02-16T10:40:00.971Z,16.60
2023-02-16T10:42:27.966Z,16.60
2023-02-16T10:45:07.012Z,16.70
2023-02-16T10:47:37.327Z,16.80
2023-02-16T10:50:07.836Z,16.90
2023-02-16T10:52:37.852Z,17.00
2023-02-16T10:55:04.691Z,17.00
2023-02-16T10:57:32.943Z,17.00
2023-02-16T11:00:02.017Z,17.20
2023-02-16T11:02:48.318Z,17.20
2023-02-16T11:05:27.484Z,17.20
2023-02-16T11:07:56.715Z,17.20
2023-02-16T11:10:35.250Z,17.40
2023-02-16T11:13:02.383Z,17.40
2023-02-16T11:15:29.676Z,17.40
2023-02-16T11:18:04.815Z,17.60
2023-02-16T11:20:31.872Z,17.70
2023-02-16T11:23:17.468Z,17.90
2023-02-16T11:26:10.576Z,18.00
2023-02-16T11:28:44.842Z,17.80
2023-02-16T11:31:11.941Z,17.90
2023-02-16T11:33:40.220Z,17.70
2023-02-16T11:36:26.071Z,17.70
2023-02-16T11:39:15.819Z,17.80
2023-02-16T11:41:45.733Z,17.70
2023-02-16T11:44:27.088Z,17.70
2023-02-16T11:46:55.521Z,17.70
2023-02-16T11:49:41.800Z,17.80
2023-02-16T11:52:23.840Z,17.70
2023-02-16T11:54:57.566Z,17.70
2023-02-16T11:57:35.833Z,17.80
2023-02-16T12:00:09.320Z,17.90
2023-02-16T12:02:50.389Z,17.90
2023-02-16T12:05:17.221Z,17.90
2023-02-16T12:07:49.658Z,18.00
2023-02-16T12:10:22.147Z,18.00
2023-02-16T12:12:53.603Z,18.00
2023-02-16T12:15:25.077Z,18.10
2023-02-16T12:17:55.000Z,18.10
2023-02-16T12:20:36.803Z,18.10
2023-02-16T12:23:18.796Z,18.20
2023-02-16T12:26:07.044Z,18.20
2023-02-16T12:28:54.094Z,18.20
2023-02-16T12:31:34.003Z,18.10
2023-02-16T12:34:04.020Z,18.10
2023-02-16T12:36:33.553Z,18.10
2023-02-16T12:39:12.528Z,18.00
2023-02-16T12:41:47.375Z,18.00
2023-02-16T12:44:16.917Z,18.20
2023-02-16T12:46:48.558Z,18.20
2023-02-16T12:49:16.420Z,18.30
2023-02-16T12:51:49.998Z,18.30
2023-02-16T12:54:25.253Z,18.20
2023-02-16T12:57:00.660Z,18.30
2023-02-16T12:59:46.185Z,18.30
2023-02-16T13:02:22.043Z,18.30
2023-02-16T13:04:55.589Z,18.30
2023-02-16T13:07:26.206Z,18.40
2023-02-16T13:10:11.233Z,18.40
2023-02-16T13:13:16.766Z,18.50
2023-02-16T13:15:43.612Z,18.50
2023-02-16T13:18:19.267Z,18.50
2023-02-16T13:20:48.927Z,18.50
2023-02-16T13:23:18.492Z,18.60
2023-02-16T13:25:58.104Z,18.60
2023-02-16T13:28:27.812Z,18.70
2023-02-16T13:30:54.701Z,18.70
2023-02-16T13:33:41.012Z,18.70
2023-02-16T13:36:13.653Z,18.70
2023-02-16T13:39:00.801Z,18.70
2023-02-16T13:41:42.555Z,18.70
2023-02-16T13:44:09.343Z,18.70
2023-02-16T13:46:41.784Z,18.80
2023-02-16T13:49:27.093Z,18.80
2023-02-16T13:51:53.799Z,18.70
2023-02-16T13:54:31.500Z,18.70
2023-02-16T13:56:58.438Z,18.80
2023-02-16T13:59:26.216Z,18.80
2023-02-16T14:01:54.490Z,18.80
2023-02-16T14:04:27.337Z,19.00
2023-02-16T14:07:03.386Z,19.00
2023-02-16T14:09:31.190Z,19.00
2023-02-16T14:11:59.475Z,18.90
2023-02-16T14:14:26.286Z,18.90
2023-02-16T14:16:54.544Z,18.90
2023-02-16T14:19:26.184Z,18.90
2023-02-16T14:21:53.568Z,19.00
2023-02-16T14:24:26.913Z,19.00
2023-02-16T14:26:59.409Z,19.00
2023-02-16T14:29:40.838Z,18.90
2023-02-16T14:32:10.560Z,18.90
2023-02-16T14:34:42.980Z,19.00
2023-02-16T14:37:16.191Z,19.00
2023-02-16T14:40:06.431Z,19.10
2023-02-16T14:42:32.623Z,19.00
2023-02-16T14:45:05.370Z,19.10
2023-02-16T14:47:50.874Z,19.10
2023-02-16T14:50:24.099Z,19.00
2023-02-16T14:53:17.289Z,18.90
2023-02-16T14:56:04.571Z,18.90
2023-02-16T14:58:49.836Z,19.00
2023-02-16T15:01:18.017Z,19.10
2023-02-16T15:03:46.294Z,19.10
2023-02-16T15:06:25.251Z,19.10
2023-02-16T15:08:57.257Z,19.00
2023-02-16T15:11:28.773Z,19.10
2023-02-16T15:13:55.524Z,19.10
2023-02-16T15:16:22.760Z,19.10
2023-02-16T15:18:52.177Z,19.10
2023-02-16T15:21:20.827Z,19.20
2023-02-16T15:23:49.577Z,19.20
2023-02-16T15:26:24.663Z,19.20
2023-02-16T15:28:53.136Z,19.00
2023-02-16T15:31:24.065Z,19.10
2023-02-16T15:33:58.157Z,19.10
2023-02-16T15:36:31.579Z,19.10
2023-02-16T15:38:59.758Z,19.00
2023-02-16T15:41:34.668Z,19.20
2023-02-16T15:44:02.857Z,19.30
2023-02-16T15:46:37.541Z,19.30
2023-02-16T15:49:14.181Z,19.20
2023-02-16T15:51:41.756Z,19.20
2023-02-16T15:54:17.186Z,19.20
2023-02-16T15:56:54.265Z,19.20
2023-02-16T15:59:23.728Z,19.00
2023-02-16T16:01:56.195Z,19.20
2023-02-16T16:04:24.161Z,19.20
2023-02-16T16:06:51.689Z,19.20
2023-02-16T16:09:21.208Z,19.20
2023-02-16T16:11:48.533Z,19.10
2023-02-16T16:14:15.847Z,19.10
2023-02-16T16:16:43.711Z,19.20
2023-02-16T16:19:18.523Z,19.20
2023-02-16T16:21:54.428Z,19.20
2023-02-16T16:24:35.321Z,19.30
2023-02-16T16:27:04.762Z,19.30
2023-02-16T16:29:42.660Z,19.20
2023-02-16T16:32:18.466Z,19.20
2023-02-16T16:34:45.553Z,19.30
2023-02-16T16:37:22.338Z,19.30
2023-02-16T16:40:20.646Z,19.20
2023-02-16T16:43:02.417Z,19.20
2023-02-16T16:45:41.569Z,19.30
2023-02-16T16:48:16.947Z,19.20
2023-02-16T16:50:43.827Z,19.30
2023-02-16T16:53:40.006Z,19.30
2023-02-16T16:56:13.753Z,19.30
2023-02-16T16:58:40.443Z,19.20
2023-02-16T17:01:08.909Z,19.20
2023-02-16T17:03:35.708Z,19.30
2023-02-16T17:06:02.599Z,19.40
2023-02-16T17:08:29.490Z,19.30
2023-02-16T17:10:56.381Z,19.50
2023-02-16T17:13:23.171Z,19.40
2023-02-16T17:15:55.441Z,19.40
2023-02-16T17:18:22.653Z,19.50
2023-02-16T17:20:49.906Z,19.30
2023-02-16T17:23:17.676Z,19.50
2023-02-16T17:25:44.687Z,19.50
2023-02-16T17:28:12.156Z,19.40
2023-02-16T17:30:39.239Z,19.40
2023-02-16T17:33:09.701Z,19.40
2023-02-16T17:35:37.576Z,19.40
2023-02-16T17:38:12.052Z,19.30
2023-02-16T17:40:39.873Z,19.40
2023-02-16T17:43:16.800Z,19.50
2023-02-16T17:45:43.701Z,19.40
2023-02-16T17:48:15.984Z,19.40
2023-02-16T17:50:42.970Z,19.30
2023-02-16T17:53:11.833Z,19.30
2023-02-16T17:55:38.590Z,19.40
2023-02-16T17:58:05.413Z,19.20
2023-02-16T18:00:32.254Z,19.40
2023-02-16T18:02:59.046Z,19.50
2023-02-16T18:05:25.893Z,19.50
2023-02-16T18:07:52.676Z,19.50
2023-02-16T18:10:29.949Z,19.40
2023-02-16T18:12:56.686Z,19.50
2023-02-16T18:15:24.012Z,19.50
2023-02-16T18:17:50.892Z,19.40
2023-02-16T18:20:17.699Z,19.40
2023-02-16T18:22:44.461Z,19.40
2023-02-16T18:25:11.478Z,19.50
2023-02-16T18:27:38.206Z,19.50
2023-02-16T18:30:06.197Z,19.50
2023-02-16T18:32:33.121Z,19.50
2023-02-16T18:34:59.899Z,19.40
2023-02-16T18:37:26.642Z,19.50
2023-02-16T18:39:53.495Z,19.40
2023-02-16T18:42:20.330Z,19.30
2023-02-16T18:44:48.257Z,19.60
2023-02-16T18:47:15.316Z,19.50
2023-02-16T18:49:42.217Z,19.50
2023-02-16T18:52:09.363Z,19.40
2023-02-16T18:54:36.176Z,19.40
2023-02-16T18:57:02.958Z,19.40
2023-02-16T18:59:29.738Z,19.40
2023-02-16T19:01:57.100Z,19.50
2023-02-16T19:04:24.379Z,19.50
2023-02-16T19:06:51.609Z,19.50
2023-02-16T19:09:19.165Z,19.50
2023-02-16T19:11:46.120Z,19.50
2023-02-16T19:14:12.996Z,19.60
2023-02-16T19:16:40.454Z,19.60
2023-02-16T19:19:07.242Z,19.50
2023-02-16T19:21:34.087Z,19.50
2023-02-16T19:24:01.100Z,19.50
2023-02-16T19:26:27.858Z,19.50
2023-02-16T19:28:54.626Z,19.50
2023-02-16T19:31:23.199Z,19.50
2023-02-16T19:33:50.156Z,19.50
2023-02-16T19:36:17.542Z,19.70
2023-02-16T19:38:44.770Z,19.60
2023-02-16T19:41:12.724Z,19.60
2023-02-16T19:43:40.227Z,19.50
2023-02-16T19:46:07.632Z,19.60
2023-02-16T19:48:34.892Z,19.60
2023-02-16T19:51:02.724Z,19.70
2023-02-16T19:53:29.747Z,19.70
2023-02-16T19:55:56.777Z,19.60
2023-02-16T19:58:24.232Z,19.50
2023-02-16T20:00:51.299Z,19.50
2023-02-16T20:03:18.555Z,19.50
2023-02-16T20:05:45.436Z,19.50
2023-02-16T20:08:12.338Z,19.60
2023-02-16T20:10:40.277Z,19.60
2023-02-16T20:13:07.085Z,19.70
2023-02-16T20:15:33.912Z,19.70
2023-02-16T20:18:00.696Z,19.60
2023-02-16T20:20:27.457Z,19.60
2023-02-16T20:22:54.407Z,19.60
2023-02-16T20:25:21.131Z,19.60
2023-02-16T20:27:47.922Z,19.60
2023-02-16T20:30:17.076Z,19.70
2023-02-16T20:32:44.845Z,19.60
2023-02-16T20:35:12.979Z,19.50
2023-02-16T20:37:39.756Z,19.60
2023-02-16T20:40:07.007Z,19.50
2023-02-16T20:42:33.792Z,19.60
2023-02-16T20:45:00.708Z,19.60
2023-02-16T20:47:27.502Z,19.70
2023-02-16T20:49:54.329Z,19.70
2023-02-16T20:52:21.159Z,19.60
2023-02-16T20:54:47.948Z,19.60
2023-02-16T20:57:26.159Z,19.70
2023-02-16T20:59:54.074Z,19.60
2023-02-16T21:02:20.811Z,19.60
2023-02-16T21:04:47.665Z,19.50
2023-02-16T21:07:14.587Z,19.50
2023-02-16T21:09:41.451Z,19.60
2023-02-16T21:12:08.242Z,19.50
2023-02-16T21:14:35.216Z,19.60
2023-02-16T21:17:02.120Z,19.60
2023-02-16T21:19:28.904Z,19.60
2023-02-16T21:21:55.910Z,19.40
2023-02-16T21:24:22.893Z,19.50
2023-02-16T21:26:49.680Z,19.50
2023-02-16T21:29:16.561Z,19.50
2023-02-16T21:31:43.626Z,19.50
2023-02-16T21:34:10.494Z,19.50
2023-02-16T21:36:38.335Z,19.50
2023-02-16T21:39:05.196Z,19.60
2023-02-16T21:41:32.131Z,19.60
2023-02-16T21:44:00.806Z,19.50
2023-02-16T21:46:28.777Z,19.70
2023-02-16T21:48:57.308Z,19.60
2023-02-16T21:51:25.694Z,19.70
2023-02-16T21:53:53.338Z,19.70
2023-02-16T21:56:20.295Z,19.60
2023-02-16T21:58:47.498Z,19.60
2023-02-16T22:01:14.564Z,19.70
2023-02-16T22:03:41.403Z,19.50
2023-02-16T22:06:08.613Z,19.40
2023-02-16T22:08:37.991Z,19.50
2023-02-16T22:11:05.914Z,19.50
2023-02-16T22:13:33.222Z,19.50
2023-02-16T22:16:00.076Z,19.60
2023-02-16T22:18:26.914Z,19.60
2023-02-16T22:20:53.805Z,19.40
2023-02-16T22:23:20.607Z,19.40
2023-02-16T22:25:47.355Z,19.50
2023-02-16T22:28:14.112Z,19.60
2023-02-16T22:30:40.853Z,19.50
2023-02-16T22:33:07.585Z,19.60
2023-02-16T22:35:34.425Z,19.50
2023-02-16T22:38:01.188Z,19.50
2023-02-16T22:40:27.966Z,19.50
2023-02-16T22:42:54.839Z,19.50
2023-02-16T22:45:21.572Z,19.50
2023-02-16T22:47:48.372Z,19.60
2023-02-16T22:50:15.177Z,19.60
2023-02-16T22:52:41.920Z,19.60
2023-02-16T22:55:08.870Z,19.60
2023-02-16T22:57:36.938Z,19.60
2023-02-16T23:00:08.494Z,19.50
2023-02-16T23:02:37.755Z,19.50
2023-02-16T23:05:04.826Z,19.40
2023-02-16T23:07:32.198Z,19.50
2023-02-16T23:09:59.073Z,19.50
2023-02-16T23:12:25.821Z,19.60
2023-02-16T23:14:52.577Z,19.60
2023-02-16T23:17:20.075Z,19.50
2023-02-16T23:19:48.962Z,19.50
2023-02-16T23:22:15.729Z,19.60
2023-02-16T23:24:42.624Z,19.50
2023-02-16T23:27:09.399Z,19.40
2023-02-16T23:29:36.158Z,19.60
2023-02-16T23:32:04.714Z,19.60
2023-02-16T23:34:31.450Z,19.70
2023-02-16T23:36:58.181Z,19.60
2023-02-16T23:39:24.974Z,19.50
2023-02-16T23:41:51.765Z,19.50
2023-02-16T23:44:18.485Z,19.50
2023-02-16T23:46:45.291Z,19.40
2023-02-16T23:49:12.071Z,19.40
2023-02-16T23:51:38.972Z,19.50
2023-02-16T23:54:05.947Z,19.70
2023-02-16T23:56:32.715Z,19.60
2023-02-16T23:59:00.204Z,19.50
